sensor_id;sensor_type;location;lat;lon;timestamp;P1;durP1;ratioP1;P2;durP2;ratioP2
22034;SDS011;11181;51.002;4.356;2023-10-08T00:01:02;4.77;;;2.40;;
22034;SDS011;11181;51.002;4.356;2023-10-08T00:03:31;3.27;;;2.00;;
22034;SDS011;11181;51.002;4.356;2023-10-08T00:05:58;5.47;;;2.60;;
22034;SDS011;11181;51.002;4.356;2023-10-08T00:08:31;5.63;;;2.93;;
22034;SDS011;11181;51.002;4.356;2023-10-08T00:10:58;3.27;;;2.27;;
22034;SDS011;11181;51.002;4.356;2023-10-08T00:13:32;8.40;;;2.93;;
22034;SDS011;11181;51.002;4.356;2023-10-08T00:16:04;4.80;;;2.00;;
22034;SDS011;11181;51.002;4.356;2023-10-08T00:18:34;4.97;;;2.27;;
22034;SDS011;11181;51.002;4.356;2023-10-08T00:21:01;3.57;;;2.20;;
22034;SDS011;11181;51.002;4.356;2023-10-08T00:23:41;5.73;;;2.57;;
22034;SDS011;11181;51.002;4.356;2023-10-08T00:26:14;6.53;;;2.73;;
22034;SDS011;11181;51.002;4.356;2023-10-08T00:28:45;5.43;;;2.20;;
22034;SDS011;11181;51.002;4.356;2023-10-08T00:31:13;4.00;;;2.70;;
22034;SDS011;11181;51.002;4.356;2023-10-08T00:33:42;4.70;;;2.00;;
22034;SDS011;11181;51.002;4.356;2023-10-08T00:36:09;5.47;;;2.17;;
22034;SDS011;11181;51.002;4.356;2023-10-08T00:38:44;4.33;;;2.37;;
22034;SDS011;11181;51.002;4.356;2023-10-08T00:41:12;4.20;;;2.43;;
22034;SDS011;11181;51.002;4.356;2023-10-08T00:43:42;4.23;;;2.57;;
22034;SDS011;11181;51.002;4.356;2023-10-08T00:46:11;9.47;;;3.13;;
22034;SDS011;11181;51.002;4.356;2023-10-08T00:48:48;4.87;;;2.33;;
22034;SDS011;11181;51.002;4.356;2023-10-08T00:51:17;4.00;;;2.27;;
22034;SDS011;11181;51.002;4.356;2023-10-08T00:53:52;5.20;;;2.67;;
22034;SDS011;11181;51.002;4.356;2023-10-08T00:56:25;4.37;;;2.40;;
22034;SDS011;11181;51.002;4.356;2023-10-08T00:59:10;4.60;;;2.37;;
22034;SDS011;11181;51.002;4.356;2023-10-08T01:01:40;6.10;;;3.37;;
22034;SDS011;11181;51.002;4.356;2023-10-08T01:04:14;5.07;;;2.70;;
22034;SDS011;11181;51.002;4.356;2023-10-08T01:06:42;5.13;;;2.33;;
22034;SDS011;11181;51.002;4.356;2023-10-08T01:09:09;5.13;;;2.73;;
22034;SDS011;11181;51.002;4.356;2023-10-08T01:11:43;4.37;;;2.57;;
22034;SDS011;11181;51.002;4.356;2023-10-08T01:14:15;4.13;;;2.90;;
22034;SDS011;11181;51.002;4.356;2023-10-08T01:16:45;4.57;;;2.63;;
22034;SDS011;11181;51.002;4.356;2023-10-08T01:19:17;4.33;;;2.47;;
22034;SDS011;11181;51.002;4.356;2023-10-08T01:21:45;4.17;;;2.40;;
22034;SDS011;11181;51.002;4.356;2023-10-08T01:24:14;6.30;;;2.60;;
22034;SDS011;11181;51.002;4.356;2023-10-08T01:26:43;4.63;;;2.60;;
22034;SDS011;11181;51.002;4.356;2023-10-08T01:29:10;4.80;;;2.17;;
22034;SDS011;11181;51.002;4.356;2023-10-08T01:31:45;3.77;;;2.20;;
22034;SDS011;11181;51.002;4.356;2023-10-08T01:34:13;2.83;;;1.97;;
22034;SDS011;11181;51.002;4.356;2023-10-08T01:36:42;4.90;;;2.77;;
22034;SDS011;11181;51.002;4.356;2023-10-08T01:39:10;6.30;;;2.50;;
22034;SDS011;11181;51.002;4.356;2023-10-08T01:41:42;5.97;;;2.70;;
22034;SDS011;11181;51.002;4.356;2023-10-08T01:44:09;3.40;;;2.37;;
22034;SDS011;11181;51.002;4.356;2023-10-08T01:46:37;5.20;;;2.20;;
22034;SDS011;11181;51.002;4.356;2023-10-08T01:49:05;5.40;;;2.70;;
22034;SDS011;11181;51.002;4.356;2023-10-08T01:51:39;6.93;;;3.43;;
22034;SDS011;11181;51.002;4.356;2023-10-08T01:54:11;5.23;;;2.83;;
22034;SDS011;11181;51.002;4.356;2023-10-08T01:56:44;5.30;;;3.03;;
22034;SDS011;11181;51.002;4.356;2023-10-08T01:59:11;9.07;;;2.47;;
22034;SDS011;11181;51.002;4.356;2023-10-08T02:01:40;4.23;;;2.10;;
22034;SDS011;11181;51.002;4.356;2023-10-08T02:04:08;6.43;;;2.73;;
22034;SDS011;11181;51.002;4.356;2023-10-08T02:06:37;4.77;;;2.70;;
22034;SDS011;11181;51.002;4.356;2023-10-08T02:09:05;3.63;;;2.10;;
22034;SDS011;11181;51.002;4.356;2023-10-08T02:11:45;6.03;;;2.53;;
22034;SDS011;11181;51.002;4.356;2023-10-08T02:14:15;4.43;;;2.40;;
22034;SDS011;11181;51.002;4.356;2023-10-08T02:16:42;5.80;;;2.53;;
22034;SDS011;11181;51.002;4.356;2023-10-08T02:19:09;18.83;;;3.57;;
22034;SDS011;11181;51.002;4.356;2023-10-08T02:21:36;7.27;;;3.03;;
22034;SDS011;11181;51.002;4.356;2023-10-08T02:24:07;5.40;;;2.87;;
22034;SDS011;11181;51.002;4.356;2023-10-08T02:26:36;3.10;;;2.20;;
22034;SDS011;11181;51.002;4.356;2023-10-08T02:29:05;6.93;;;2.63;;
22034;SDS011;11181;51.002;4.356;2023-10-08T02:31:36;6.00;;;2.40;;
22034;SDS011;11181;51.002;4.356;2023-10-08T02:34:04;4.13;;;2.53;;
22034;SDS011;11181;51.002;4.356;2023-10-08T02:36:33;6.13;;;2.80;;
22034;SDS011;11181;51.002;4.356;2023-10-08T02:39:02;3.50;;;2.30;;
22034;SDS011;11181;51.002;4.356;2023-10-08T02:41:32;7.80;;;2.77;;
22034;SDS011;11181;51.002;4.356;2023-10-08T02:43:59;6.23;;;2.57;;
22034;SDS011;11181;51.002;4.356;2023-10-08T02:46:27;5.47;;;3.37;;
22034;SDS011;11181;51.002;4.356;2023-10-08T02:48:58;4.47;;;2.67;;
22034;SDS011;11181;51.002;4.356;2023-10-08T02:51:28;5.57;;;3.30;;
22034;SDS011;11181;51.002;4.356;2023-10-08T02:53:55;5.77;;;2.47;;
22034;SDS011;11181;51.002;4.356;2023-10-08T02:56:22;5.20;;;2.67;;
22034;SDS011;11181;51.002;4.356;2023-10-08T02:58:49;7.53;;;2.50;;
22034;SDS011;11181;51.002;4.356;2023-10-08T03:01:16;3.53;;;2.40;;
22034;SDS011;11181;51.002;4.356;2023-10-08T03:03:44;5.17;;;2.83;;
22034;SDS011;11181;51.002;4.356;2023-10-08T03:06:12;4.63;;;2.67;;
22034;SDS011;11181;51.002;4.356;2023-10-08T03:08:40;4.67;;;3.10;;
22034;SDS011;11181;51.002;4.356;2023-10-08T03:11:08;6.70;;;3.17;;
22034;SDS011;11181;51.002;4.356;2023-10-08T03:13:42;4.20;;;2.43;;
22034;SDS011;11181;51.002;4.356;2023-10-08T03:16:12;4.90;;;2.23;;
22034;SDS011;11181;51.002;4.356;2023-10-08T03:18:40;5.20;;;3.27;;
22034;SDS011;11181;51.002;4.356;2023-10-08T03:21:16;4.03;;;2.43;;
22034;SDS011;11181;51.002;4.356;2023-10-08T03:23:46;3.20;;;2.27;;
22034;SDS011;11181;51.002;4.356;2023-10-08T03:26:15;6.67;;;2.93;;
22034;SDS011;11181;51.002;4.356;2023-10-08T03:29:03;7.13;;;2.67;;
22034;SDS011;11181;51.002;4.356;2023-10-08T03:31:34;4.33;;;2.60;;
22034;SDS011;11181;51.002;4.356;2023-10-08T03:34:16;4.60;;;2.67;;
22034;SDS011;11181;51.002;4.356;2023-10-08T03:36:46;5.50;;;3.27;;
22034;SDS011;11181;51.002;4.356;2023-10-08T03:39:14;4.53;;;3.13;;
22034;SDS011;11181;51.002;4.356;2023-10-08T03:41:43;7.77;;;3.37;;
22034;SDS011;11181;51.002;4.356;2023-10-08T03:44:23;5.67;;;2.70;;
22034;SDS011;11181;51.002;4.356;2023-10-08T03:46:50;5.47;;;2.70;;
22034;SDS011;11181;51.002;4.356;2023-10-08T03:49:17;6.93;;;2.60;;
22034;SDS011;11181;51.002;4.356;2023-10-08T03:51:53;6.20;;;2.90;;
22034;SDS011;11181;51.002;4.356;2023-10-08T03:54:22;7.90;;;3.57;;
22034;SDS011;11181;51.002;4.356;2023-10-08T03:56:59;5.07;;;2.87;;
22034;SDS011;11181;51.002;4.356;2023-10-08T03:59:29;5.43;;;2.57;;
22034;SDS011;11181;51.002;4.356;2023-10-08T04:01:57;6.83;;;2.63;;
22034;SDS011;11181;51.002;4.356;2023-10-08T04:04:35;4.77;;;2.80;;
22034;SDS011;11181;51.002;4.356;2023-10-08T04:07:17;6.83;;;2.80;;
22034;SDS011;11181;51.002;4.356;2023-10-08T04:09:54;6.87;;;3.27;;
22034;SDS011;11181;51.002;4.356;2023-10-08T04:12:42;4.10;;;2.80;;
22034;SDS011;11181;51.002;4.356;2023-10-08T04:15:13;10.27;;;3.07;;
22034;SDS011;11181;51.002;4.356;2023-10-08T04:17:41;5.67;;;2.17;;
22034;SDS011;11181;51.002;4.356;2023-10-08T04:20:10;7.07;;;2.77;;
22034;SDS011;11181;51.002;4.356;2023-10-08T04:22:57;7.73;;;2.90;;
22034;SDS011;11181;51.002;4.356;2023-10-08T04:25:25;8.90;;;3.20;;
22034;SDS011;11181;51.002;4.356;2023-10-08T04:27:53;3.97;;;2.43;;
22034;SDS011;11181;51.002;4.356;2023-10-08T04:30:23;4.07;;;2.77;;
22034;SDS011;11181;51.002;4.356;2023-10-08T04:32:57;5.53;;;3.13;;
22034;SDS011;11181;51.002;4.356;2023-10-08T04:35:31;8.37;;;3.20;;
22034;SDS011;11181;51.002;4.356;2023-10-08T04:38:02;5.37;;;2.90;;
22034;SDS011;11181;51.002;4.356;2023-10-08T04:40:30;7.17;;;3.73;;
22034;SDS011;11181;51.002;4.356;2023-10-08T04:43:04;8.67;;;4.00;;
22034;SDS011;11181;51.002;4.356;2023-10-08T04:45:35;5.40;;;3.10;;
22034;SDS011;11181;51.002;4.356;2023-10-08T04:48:03;8.33;;;3.07;;
22034;SDS011;11181;51.002;4.356;2023-10-08T04:50:34;6.13;;;2.70;;
22034;SDS011;11181;51.002;4.356;2023-10-08T04:53:03;5.20;;;2.87;;
22034;SDS011;11181;51.002;4.356;2023-10-08T04:55:33;6.70;;;2.80;;
22034;SDS011;11181;51.002;4.356;2023-10-08T04:58:07;6.43;;;2.50;;
22034;SDS011;11181;51.002;4.356;2023-10-08T05:00:44;4.73;;;3.50;;
22034;SDS011;11181;51.002;4.356;2023-10-08T05:03:19;4.47;;;2.30;;
22034;SDS011;11181;51.002;4.356;2023-10-08T05:05:48;8.17;;;3.60;;
22034;SDS011;11181;51.002;4.356;2023-10-08T05:08:34;4.73;;;2.50;;
22034;SDS011;11181;51.002;4.356;2023-10-08T05:11:12;7.43;;;3.40;;
22034;SDS011;11181;51.002;4.356;2023-10-08T05:14:02;6.37;;;2.87;;
22034;SDS011;11181;51.002;4.356;2023-10-08T05:16:41;5.37;;;3.17;;
22034;SDS011;11181;51.002;4.356;2023-10-08T05:19:25;5.30;;;2.83;;
22034;SDS011;11181;51.002;4.356;2023-10-08T05:22:13;6.27;;;2.90;;
22034;SDS011;11181;51.002;4.356;2023-10-08T05:24:45;4.33;;;2.77;;
22034;SDS011;11181;51.002;4.356;2023-10-08T05:27:32;7.57;;;3.30;;
22034;SDS011;11181;51.002;4.356;2023-10-08T05:30:22;5.67;;;3.03;;
22034;SDS011;11181;51.002;4.356;2023-10-08T05:32:54;7.23;;;3.33;;
22034;SDS011;11181;51.002;4.356;2023-10-08T05:35:38;6.77;;;3.20;;
22034;SDS011;11181;51.002;4.356;2023-10-08T05:38:19;7.70;;;3.17;;
22034;SDS011;11181;51.002;4.356;2023-10-08T05:40:50;5.73;;;3.00;;
22034;SDS011;11181;51.002;4.356;2023-10-08T05:43:37;5.17;;;2.93;;
22034;SDS011;11181;51.002;4.356;2023-10-08T05:46:36;5.40;;;3.50;;
22034;SDS011;11181;51.002;4.356;2023-10-08T05:49:16;6.80;;;3.33;;
22034;SDS011;11181;51.002;4.356;2023-10-08T05:52:03;5.03;;;2.80;;
22034;SDS011;11181;51.002;4.356;2023-10-08T05:54:47;9.50;;;3.40;;
22034;SDS011;11181;51.002;4.356;2023-10-08T05:57:41;6.63;;;3.37;;
22034;SDS011;11181;51.002;4.356;2023-10-08T06:00:12;9.03;;;4.17;;
22034;SDS011;11181;51.002;4.356;2023-10-08T06:02:57;4.37;;;3.10;;
22034;SDS011;11181;51.002;4.356;2023-10-08T06:05:35;7.40;;;3.37;;
22034;SDS011;11181;51.002;4.356;2023-10-08T06:08:12;4.63;;;2.93;;
22034;SDS011;11181;51.002;4.356;2023-10-08T06:10:40;3.83;;;2.60;;
22034;SDS011;11181;51.002;4.356;2023-10-08T06:13:23;6.77;;;3.10;;
22034;SDS011;11181;51.002;4.356;2023-10-08T06:16:10;8.53;;;4.13;;
22034;SDS011;11181;51.002;4.356;2023-10-08T06:18:55;6.07;;;3.27;;
22034;SDS011;11181;51.002;4.356;2023-10-08T06:21:22;7.60;;;3.80;;
22034;SDS011;11181;51.002;4.356;2023-10-08T06:23:48;9.17;;;3.07;;
22034;SDS011;11181;51.002;4.356;2023-10-08T06:26:18;7.87;;;3.67;;
22034;SDS011;11181;51.002;4.356;2023-10-08T06:28:51;8.77;;;3.70;;
22034;SDS011;11181;51.002;4.356;2023-10-08T06:31:22;11.63;;;3.87;;
22034;SDS011;11181;51.002;4.356;2023-10-08T06:33:50;8.33;;;3.20;;
22034;SDS011;11181;51.002;4.356;2023-10-08T06:36:17;9.33;;;3.17;;
22034;SDS011;11181;51.002;4.356;2023-10-08T06:38:49;8.90;;;3.63;;
22034;SDS011;11181;51.002;4.356;2023-10-08T06:41:16;7.93;;;3.10;;
22034;SDS011;11181;51.002;4.356;2023-10-08T06:43:44;8.70;;;4.63;;
22034;SDS011;11181;51.002;4.356;2023-10-08T06:46:16;6.03;;;3.73;;
22034;SDS011;11181;51.002;4.356;2023-10-08T06:48:44;6.07;;;3.37;;
22034;SDS011;11181;51.002;4.356;2023-10-08T06:51:14;5.33;;;3.50;;
22034;SDS011;11181;51.002;4.356;2023-10-08T06:53:43;7.23;;;3.57;;
22034;SDS011;11181;51.002;4.356;2023-10-08T06:56:10;6.57;;;3.90;;
22034;SDS011;11181;51.002;4.356;2023-10-08T06:58:38;6.40;;;3.80;;
22034;SDS011;11181;51.002;4.356;2023-10-08T07:01:10;6.90;;;3.87;;
22034;SDS011;11181;51.002;4.356;2023-10-08T07:03:39;5.57;;;3.20;;
22034;SDS011;11181;51.002;4.356;2023-10-08T07:06:06;5.50;;;3.20;;
22034;SDS011;11181;51.002;4.356;2023-10-08T07:08:51;8.47;;;3.63;;
22034;SDS011;11181;51.002;4.356;2023-10-08T07:11:20;6.23;;;3.57;;
22034;SDS011;11181;51.002;4.356;2023-10-08T07:13:48;8.40;;;3.90;;
22034;SDS011;11181;51.002;4.356;2023-10-08T07:16:16;9.50;;;4.90;;
22034;SDS011;11181;51.002;4.356;2023-10-08T07:18:45;5.23;;;3.37;;
22034;SDS011;11181;51.002;4.356;2023-10-08T07:21:16;7.67;;;3.57;;
22034;SDS011;11181;51.002;4.356;2023-10-08T07:23:44;7.80;;;3.90;;
22034;SDS011;11181;51.002;4.356;2023-10-08T07:26:22;7.40;;;3.57;;
22034;SDS011;11181;51.002;4.356;2023-10-08T07:28:50;7.90;;;3.40;;
22034;SDS011;11181;51.002;4.356;2023-10-08T07:31:18;9.47;;;4.10;;
22034;SDS011;11181;51.002;4.356;2023-10-08T07:33:48;4.47;;;3.10;;
22034;SDS011;11181;51.002;4.356;2023-10-08T07:36:22;4.57;;;3.13;;
22034;SDS011;11181;51.002;4.356;2023-10-08T07:38:50;6.70;;;3.73;;
22034;SDS011;11181;51.002;4.356;2023-10-08T07:41:17;7.43;;;3.50;;
22034;SDS011;11181;51.002;4.356;2023-10-08T07:43:45;8.23;;;3.80;;
22034;SDS011;11181;51.002;4.356;2023-10-08T07:46:20;7.10;;;3.87;;
22034;SDS011;11181;51.002;4.356;2023-10-08T07:48:49;7.00;;;3.43;;
22034;SDS011;11181;51.002;4.356;2023-10-08T07:51:16;9.33;;;4.30;;
22034;SDS011;11181;51.002;4.356;2023-10-08T07:53:47;5.40;;;3.17;;
22034;SDS011;11181;51.002;4.356;2023-10-08T07:56:14;10.37;;;3.70;;
22034;SDS011;11181;51.002;4.356;2023-10-08T07:58:43;7.50;;;3.60;;
22034;SDS011;11181;51.002;4.356;2023-10-08T08:01:09;9.57;;;3.87;;
22034;SDS011;11181;51.002;4.356;2023-10-08T08:03:38;9.10;;;3.90;;
22034;SDS011;11181;51.002;4.356;2023-10-08T08:06:08;7.63;;;3.67;;
22034;SDS011;11181;51.002;4.356;2023-10-08T08:08:35;9.17;;;3.47;;
22034;SDS011;11181;51.002;4.356;2023-10-08T08:11:03;11.77;;;4.33;;
22034;SDS011;11181;51.002;4.356;2023-10-08T08:13:37;8.47;;;3.37;;
22034;SDS011;11181;51.002;4.356;2023-10-08T08:16:07;7.83;;;4.47;;
22034;SDS011;11181;51.002;4.356;2023-10-08T08:18:42;8.73;;;4.07;;
22034;SDS011;11181;51.002;4.356;2023-10-08T08:21:12;6.37;;;3.50;;
22034;SDS011;11181;51.002;4.356;2023-10-08T08:23:41;9.93;;;3.90;;
22034;SDS011;11181;51.002;4.356;2023-10-08T08:26:13;6.90;;;3.70;;
22034;SDS011;11181;51.002;4.356;2023-10-08T08:28:51;6.37;;;3.57;;
22034;SDS011;11181;51.002;4.356;2023-10-08T08:31:20;6.07;;;3.63;;
22034;SDS011;11181;51.002;4.356;2023-10-08T08:33:48;12.00;;;4.40;;
22034;SDS011;11181;51.002;4.356;2023-10-08T08:36:27;7.20;;;3.97;;
22034;SDS011;11181;51.002;4.356;2023-10-08T08:38:54;10.97;;;4.63;;
22034;SDS011;11181;51.002;4.356;2023-10-08T08:41:22;6.57;;;3.67;;
22034;SDS011;11181;51.002;4.356;2023-10-08T08:43:49;6.33;;;3.00;;
22034;SDS011;11181;51.002;4.356;2023-10-08T08:46:23;6.70;;;3.93;;
22034;SDS011;11181;51.002;4.356;2023-10-08T08:48:54;7.80;;;3.80;;
22034;SDS011;11181;51.002;4.356;2023-10-08T08:51:25;10.43;;;4.53;;
22034;SDS011;11181;51.002;4.356;2023-10-08T08:53:53;6.80;;;4.20;;
22034;SDS011;11181;51.002;4.356;2023-10-08T08:56:20;10.60;;;4.38;;
22034;SDS011;11181;51.002;4.356;2023-10-08T08:58:47;10.48;;;4.50;;
22034;SDS011;11181;51.002;4.356;2023-10-08T09:01:16;10.70;;;5.00;;
22034;SDS011;11181;51.002;4.356;2023-10-08T09:03:45;11.85;;;4.90;;
22034;SDS011;11181;51.002;4.356;2023-10-08T09:06:13;10.70;;;4.45;;
22034;SDS011;11181;51.002;4.356;2023-10-08T09:08:42;8.60;;;4.10;;
22034;SDS011;11181;51.002;4.356;2023-10-08T09:11:13;8.68;;;4.07;;
22034;SDS011;11181;51.002;4.356;2023-10-08T09:13:41;9.85;;;4.07;;
22034;SDS011;11181;51.002;4.356;2023-10-08T09:16:11;9.13;;;4.25;;
22034;SDS011;11181;51.002;4.356;2023-10-08T09:18:40;13.15;;;4.93;;
22034;SDS011;11181;51.002;4.356;2023-10-08T09:21:10;8.02;;;4.03;;
22034;SDS011;11181;51.002;4.356;2023-10-08T09:23:42;8.95;;;4.47;;
22034;SDS011;11181;51.002;4.356;2023-10-08T09:26:12;10.15;;;4.85;;
22034;SDS011;11181;51.002;4.356;2023-10-08T09:28:40;10.05;;;4.88;;
22034;SDS011;11181;51.002;4.356;2023-10-08T09:31:11;11.63;;;4.78;;
22034;SDS011;11181;51.002;4.356;2023-10-08T09:33:39;7.47;;;4.20;;
22034;SDS011;11181;51.002;4.356;2023-10-08T09:36:06;8.70;;;4.60;;
22034;SDS011;11181;51.002;4.356;2023-10-08T09:38:36;8.95;;;4.28;;
22034;SDS011;11181;51.002;4.356;2023-10-08T09:41:04;11.90;;;5.28;;
22034;SDS011;11181;51.002;4.356;2023-10-08T09:43:33;12.35;;;5.03;;
22034;SDS011;11181;51.002;4.356;2023-10-08T09:46:03;10.75;;;4.53;;
22034;SDS011;11181;51.002;4.356;2023-10-08T09:48:41;10.43;;;5.35;;
22034;SDS011;11181;51.002;4.356;2023-10-08T09:51:11;9.57;;;4.90;;
22034;SDS011;11181;51.002;4.356;2023-10-08T09:53:43;12.27;;;5.15;;
22034;SDS011;11181;51.002;4.356;2023-10-08T09:56:20;9.55;;;5.15;;
22034;SDS011;11181;51.002;4.356;2023-10-08T09:58:49;10.57;;;4.93;;
22034;SDS011;11181;51.002;4.356;2023-10-08T10:01:17;10.63;;;5.63;;
22034;SDS011;11181;51.002;4.356;2023-10-08T10:03:45;13.20;;;6.20;;
22034;SDS011;11181;51.002;4.356;2023-10-08T10:06:12;10.02;;;5.82;;
22034;SDS011;11181;51.002;4.356;2023-10-08T10:08:41;8.30;;;4.90;;
22034;SDS011;11181;51.002;4.356;2023-10-08T10:11:08;8.90;;;4.93;;
22034;SDS011;11181;51.002;4.356;2023-10-08T10:13:49;7.43;;;4.90;;
22034;SDS011;11181;51.002;4.356;2023-10-08T10:16:17;11.23;;;4.78;;
22034;SDS011;11181;51.002;4.356;2023-10-08T10:18:48;9.18;;;5.75;;
22034;SDS011;11181;51.002;4.356;2023-10-08T10:21:25;14.25;;;5.13;;
22034;SDS011;11181;51.002;4.356;2023-10-08T10:23:54;11.60;;;4.60;;
22034;SDS011;11181;51.002;4.356;2023-10-08T10:26:22;8.57;;;5.45;;
22034;SDS011;11181;51.002;4.356;2023-10-08T10:31:51;14.10;;;5.90;;
22034;SDS011;11181;51.002;4.356;2023-10-08T10:34:20;13.23;;;5.93;;
22034;SDS011;11181;51.002;4.356;2023-10-08T10:36:50;10.15;;;4.50;;
22034;SDS011;11181;51.002;4.356;2023-10-08T10:39:25;13.63;;;5.63;;
22034;SDS011;11181;51.002;4.356;2023-10-08T10:41:53;7.38;;;5.28;;
22034;SDS011;11181;51.002;4.356;2023-10-08T10:44:24;10.75;;;5.13;;
22034;SDS011;11181;51.002;4.356;2023-10-08T10:46:51;11.98;;;5.70;;
22034;SDS011;11181;51.002;4.356;2023-10-08T10:49:38;8.65;;;4.88;;
22034;SDS011;11181;51.002;4.356;2023-10-08T10:52:13;7.63;;;4.68;;
22034;SDS011;11181;51.002;4.356;2023-10-08T10:54:43;8.95;;;4.45;;
22034;SDS011;11181;51.002;4.356;2023-10-08T10:57:23;9.57;;;5.00;;
22034;SDS011;11181;51.002;4.356;2023-10-08T11:00:01;10.02;;;4.63;;
22034;SDS011;11181;51.002;4.356;2023-10-08T11:02:52;7.93;;;4.55;;
22034;SDS011;11181;51.002;4.356;2023-10-08T11:05:25;11.48;;;4.80;;
22034;SDS011;11181;51.002;4.356;2023-10-08T11:07:54;10.35;;;4.40;;
22034;SDS011;11181;51.002;4.356;2023-10-08T11:10:25;7.82;;;4.45;;
22034;SDS011;11181;51.002;4.356;2023-10-08T11:12:53;10.40;;;4.38;;
22034;SDS011;11181;51.002;4.356;2023-10-08T11:15:26;7.07;;;4.03;;
22034;SDS011;11181;51.002;4.356;2023-10-08T11:18:06;9.40;;;3.80;;
22034;SDS011;11181;51.002;4.356;2023-10-08T11:20:34;13.05;;;5.18;;
22034;SDS011;11181;51.002;4.356;2023-10-08T11:23:04;10.40;;;4.47;;
22034;SDS011;11181;51.002;4.356;2023-10-08T11:25:51;9.55;;;4.20;;
22034;SDS011;11181;51.002;4.356;2023-10-08T11:28:19;8.27;;;4.93;;
22034;SDS011;11181;51.002;4.356;2023-10-08T11:30:49;9.88;;;4.65;;
22034;SDS011;11181;51.002;4.356;2023-10-08T11:33:18;7.82;;;4.35;;
22034;SDS011;11181;51.002;4.356;2023-10-08T11:35:55;8.43;;;4.90;;
22034;SDS011;11181;51.002;4.356;2023-10-08T11:38:25;9.10;;;4.30;;
22034;SDS011;11181;51.002;4.356;2023-10-08T11:40:53;10.07;;;4.63;;
22034;SDS011;11181;51.002;4.356;2023-10-08T11:43:22;7.32;;;4.43;;
22034;SDS011;11181;51.002;4.356;2023-10-08T11:45:51;7.72;;;4.15;;
22034;SDS011;11181;51.002;4.356;2023-10-08T11:48:18;6.82;;;4.15;;
22034;SDS011;11181;51.002;4.356;2023-10-08T11:50:53;11.70;;;4.82;;
22034;SDS011;11181;51.002;4.356;2023-10-08T11:53:22;7.78;;;4.40;;
22034;SDS011;11181;51.002;4.356;2023-10-08T11:55:49;10.48;;;4.80;;
22034;SDS011;11181;51.002;4.356;2023-10-08T11:58:21;7.63;;;4.38;;
22034;SDS011;11181;51.002;4.356;2023-10-08T12:01:03;15.50;;;5.13;;
22034;SDS011;11181;51.002;4.356;2023-10-08T12:03:31;9.63;;;4.20;;
22034;SDS011;11181;51.002;4.356;2023-10-08T12:06:00;9.07;;;3.95;;
22034;SDS011;11181;51.002;4.356;2023-10-08T12:08:29;9.65;;;4.47;;
22034;SDS011;11181;51.002;4.356;2023-10-08T12:11:04;8.13;;;4.88;;
22034;SDS011;11181;51.002;4.356;2023-10-08T12:13:36;10.30;;;5.20;;
22034;SDS011;11181;51.002;4.356;2023-10-08T12:16:05;9.68;;;4.53;;
22034;SDS011;11181;51.002;4.356;2023-10-08T12:18:37;7.40;;;4.35;;
22034;SDS011;11181;51.002;4.356;2023-10-08T12:21:06;7.45;;;3.80;;
22034;SDS011;11181;51.002;4.356;2023-10-08T12:23:36;8.95;;;4.07;;
22034;SDS011;11181;51.002;4.356;2023-10-08T12:26:03;7.93;;;4.78;;
22034;SDS011;11181;51.002;4.356;2023-10-08T12:28:33;6.85;;;4.47;;
22034;SDS011;11181;51.002;4.356;2023-10-08T12:31:01;8.10;;;4.03;;
22034;SDS011;11181;51.002;4.356;2023-10-08T12:33:30;10.02;;;4.18;;
22034;SDS011;11181;51.002;4.356;2023-10-08T12:35:58;11.57;;;4.80;;
22034;SDS011;11181;51.002;4.356;2023-10-08T12:38:35;14.10;;;5.47;;
22034;SDS011;11181;51.002;4.356;2023-10-08T12:41:02;8.55;;;4.55;;
22034;SDS011;11181;51.002;4.356;2023-10-08T12:43:37;9.35;;;4.32;;
22034;SDS011;11181;51.002;4.356;2023-10-08T12:46:07;9.10;;;4.32;;
22034;SDS011;11181;51.002;4.356;2023-10-08T12:48:44;12.15;;;4.40;;
22034;SDS011;11181;51.002;4.356;2023-10-08T12:51:16;8.23;;;4.68;;
22034;SDS011;11181;51.002;4.356;2023-10-08T12:53:43;7.20;;;4.47;;
22034;SDS011;11181;51.002;4.356;2023-10-08T12:56:16;11.38;;;4.43;;
22034;SDS011;11181;51.002;4.356;2023-10-08T12:58:46;7.75;;;3.78;;
22034;SDS011;11181;51.002;4.356;2023-10-08T13:01:14;7.88;;;4.20;;
22034;SDS011;11181;51.002;4.356;2023-10-08T13:03:44;11.35;;;4.57;;
22034;SDS011;11181;51.002;4.356;2023-10-08T13:06:15;8.38;;;4.63;;
22034;SDS011;11181;51.002;4.356;2023-10-08T13:08:48;7.60;;;4.22;;
22034;SDS011;11181;51.002;4.356;2023-10-08T13:11:17;11.82;;;4.78;;
22034;SDS011;11181;51.002;4.356;2023-10-08T13:13:47;8.80;;;4.18;;
22034;SDS011;11181;51.002;4.356;2023-10-08T13:16:15;9.63;;;4.15;;
22034;SDS011;11181;51.002;4.356;2023-10-08T13:18:42;7.13;;;4.25;;
22034;SDS011;11181;51.002;4.356;2023-10-08T13:21:10;9.88;;;4.80;;
22034;SDS011;11181;51.002;4.356;2023-10-08T13:23:38;6.45;;;4.00;;
22034;SDS011;11181;51.002;4.356;2023-10-08T13:26:05;7.88;;;4.13;;
22034;SDS011;11181;51.002;4.356;2023-10-08T13:28:33;11.05;;;5.70;;
22034;SDS011;11181;51.002;4.356;2023-10-08T13:31:00;9.55;;;4.65;;
22034;SDS011;11181;51.002;4.356;2023-10-08T13:33:34;8.35;;;4.50;;
22034;SDS011;11181;51.002;4.356;2023-10-08T13:36:05;7.95;;;4.25;;
22034;SDS011;11181;51.002;4.356;2023-10-08T13:38:34;11.45;;;4.43;;
22034;SDS011;11181;51.002;4.356;2023-10-08T13:41:01;6.85;;;3.85;;
22034;SDS011;11181;51.002;4.356;2023-10-08T13:43:31;8.88;;;4.15;;
22034;SDS011;11181;51.002;4.356;2023-10-08T13:46:02;7.97;;;4.80;;
22034;SDS011;11181;51.002;4.356;2023-10-08T13:48:31;9.18;;;4.80;;
22034;SDS011;11181;51.002;4.356;2023-10-08T13:50:59;8.80;;;4.45;;
22034;SDS011;11181;51.002;4.356;2023-10-08T13:53:30;6.93;;;4.13;;
22034;SDS011;11181;51.002;4.356;2023-10-08T13:55:58;11.50;;;4.30;;
22034;SDS011;11181;51.002;4.356;2023-10-08T13:58:26;8.93;;;4.55;;
22034;SDS011;11181;51.002;4.356;2023-10-08T14:00:55;8.82;;;4.63;;
22034;SDS011;11181;51.002;4.356;2023-10-08T14:03:25;9.70;;;4.45;;
22034;SDS011;11181;51.002;4.356;2023-10-08T14:05:52;8.13;;;3.97;;
22034;SDS011;11181;51.002;4.356;2023-10-08T14:08:19;11.40;;;4.78;;
22034;SDS011;11181;51.002;4.356;2023-10-08T14:10:48;7.30;;;4.25;;
22034;SDS011;11181;51.002;4.356;2023-10-08T14:13:15;7.45;;;4.22;;
22034;SDS011;11181;51.002;4.356;2023-10-08T14:15:45;9.18;;;4.40;;
22034;SDS011;11181;51.002;4.356;2023-10-08T14:18:15;5.78;;;3.80;;
22034;SDS011;11181;51.002;4.356;2023-10-08T14:20:43;9.75;;;3.47;;
22034;SDS011;11181;51.002;4.356;2023-10-08T14:23:15;10.20;;;4.63;;
22034;SDS011;11181;51.002;4.356;2023-10-08T14:25:43;8.88;;;4.35;;
22034;SDS011;11181;51.002;4.356;2023-10-08T14:28:12;7.63;;;3.70;;
22034;SDS011;11181;51.002;4.356;2023-10-08T14:30:48;9.57;;;4.47;;
22034;SDS011;11181;51.002;4.356;2023-10-08T14:33:20;6.40;;;3.85;;
22034;SDS011;11181;51.002;4.356;2023-10-08T14:35:52;9.60;;;3.65;;
22034;SDS011;11181;51.002;4.356;2023-10-08T14:38:36;8.57;;;4.20;;
22034;SDS011;11181;51.002;4.356;2023-10-08T14:41:21;6.07;;;3.95;;
22034;SDS011;11181;51.002;4.356;2023-10-08T14:44:06;6.95;;;4.22;;
22034;SDS011;11181;51.002;4.356;2023-10-08T14:46:33;5.82;;;3.42;;
22034;SDS011;11181;51.002;4.356;2023-10-08T14:49:02;8.70;;;4.28;;
22034;SDS011;11181;51.002;4.356;2023-10-08T14:51:35;11.05;;;4.32;;
22034;SDS011;11181;51.002;4.356;2023-10-08T14:54:05;9.15;;;4.38;;
22034;SDS011;11181;51.002;4.356;2023-10-08T14:56:33;9.65;;;5.00;;
22034;SDS011;11181;51.002;4.356;2023-10-08T14:59:01;6.32;;;3.47;;
22034;SDS011;11181;51.002;4.356;2023-10-08T15:01:30;7.40;;;3.80;;
22034;SDS011;11181;51.002;4.356;2023-10-08T15:03:59;9.10;;;4.57;;
22034;SDS011;11181;51.002;4.356;2023-10-08T15:06:29;9.23;;;4.13;;
22034;SDS011;11181;51.002;4.356;2023-10-08T15:08:57;6.47;;;3.75;;
22034;SDS011;11181;51.002;4.356;2023-10-08T15:11:24;9.07;;;3.83;;
22034;SDS011;11181;51.002;4.356;2023-10-08T15:13:52;9.80;;;4.40;;